Portada
METAR-TAF:

METAR-TAF

Aeropuertos :

Stewart, Columbia Británica, Canadá

latitud: 55-56N, longitud: 129-59W, altitud: 7 m

Observación

El informe se hizo hace 34 minutos, a las 23:25 UTC
Viento calma
Temperatura 0°C
Humedad 100%
Presión 998 hPa
Visibilidad: 4.8 km
Escasas nubes a una altura de 700 ft
Cielo nuboso a una altura de 1500 ft
Cielo cubierto a una altura de 6000 ft
poca nieve

METAR: CZST 222325Z 00000KT 3SM -SN FEW007 BKN015 OVC060 00/00 A2947 RMK SC2SC4SC2 SLP981

Hora: 15:59 (23:59 UTC)


TAF: falta

Observaciones y pronósticos meteorológicos de más de 4000 aeropuertos (mensajes METAR y TAF).

Los puntos amarillos y rojos representan las estaciones disponibles.

Ponga el ratón en el punto deseado para ver el nombre de la estación.

Haga clic para ver las observaciones y los pronósticos meteorológicos.

Para cambiar el mapa : haga clic en los botones verdes con una cruz de color negro para hacer un zoom, en el botón verde con un guión para alejar o en las flechas verdes para mapas adyacentes.


METAR-TAF: